sensor_id;sensor_type;location;lat;lon;timestamp;P1;durP1;ratioP1;P2;durP2;ratioP2
13090;SDS011;6611;52.604;13.438;2022-11-18T00:01:03;14.67;;;7.40;;
13090;SDS011;6611;52.604;13.438;2022-11-18T00:06:06;12.53;;;7.80;;
13090;SDS011;6611;52.604;13.438;2022-11-18T00:11:12;14.83;;;8.47;;
13090;SDS011;6611;52.604;13.438;2022-11-18T00:16:36;16.00;;;7.97;;
13090;SDS011;6611;52.604;13.438;2022-11-18T00:21:38;13.63;;;8.83;;
13090;SDS011;6611;52.604;13.438;2022-11-18T00:26:41;12.73;;;7.00;;
13090;SDS011;6611;52.604;13.438;2022-11-18T00:31:42;12.63;;;8.03;;
13090;SDS011;6611;52.604;13.438;2022-11-18T00:36:44;13.83;;;8.87;;
13090;SDS011;6611;52.604;13.438;2022-11-18T00:41:48;14.17;;;9.40;;
13090;SDS011;6611;52.604;13.438;2022-11-18T00:47:07;13.33;;;8.23;;
13090;SDS011;6611;52.604;13.438;2022-11-18T00:52:09;16.33;;;8.40;;
13090;SDS011;6611;52.604;13.438;2022-11-18T00:57:12;13.17;;;7.57;;
13090;SDS011;6611;52.604;13.438;2022-11-18T01:02:14;12.40;;;7.50;;
13090;SDS011;6611;52.604;13.438;2022-11-18T01:07:15;13.50;;;7.90;;
13090;SDS011;6611;52.604;13.438;2022-11-18T01:12:18;12.03;;;8.30;;
13090;SDS011;6611;52.604;13.438;2022-11-18T01:17:38;14.27;;;7.83;;
13090;SDS011;6611;52.604;13.438;2022-11-18T01:22:39;12.23;;;7.33;;
13090;SDS011;6611;52.604;13.438;2022-11-18T01:27:42;12.70;;;7.97;;
13090;SDS011;6611;52.604;13.438;2022-11-18T01:32:44;15.87;;;8.63;;
13090;SDS011;6611;52.604;13.438;2022-11-18T01:37:46;12.40;;;7.27;;
13090;SDS011;6611;52.604;13.438;2022-11-18T01:42:49;15.70;;;7.83;;
13090;SDS011;6611;52.604;13.438;2022-11-18T01:47:51;13.83;;;7.73;;
13090;SDS011;6611;52.604;13.438;2022-11-18T01:52:57;12.83;;;8.43;;
13090;SDS011;6611;52.604;13.438;2022-11-18T01:58:05;12.93;;;7.80;;
13090;SDS011;6611;52.604;13.438;2022-11-18T02:03:10;13.13;;;7.80;;
13090;SDS011;6611;52.604;13.438;2022-11-18T02:08:12;14.70;;;8.07;;
13090;SDS011;6611;52.604;13.438;2022-11-18T02:13:16;14.53;;;7.37;;
13090;SDS011;6611;52.604;13.438;2022-11-18T02:18:22;12.40;;;8.13;;
13090;SDS011;6611;52.604;13.438;2022-11-18T02:29:04;12.70;;;7.27;;
13090;SDS011;6611;52.604;13.438;2022-11-18T02:34:11;14.13;;;8.33;;
13090;SDS011;6611;52.604;13.438;2022-11-18T02:39:19;13.93;;;8.20;;
13090;SDS011;6611;52.604;13.438;2022-11-18T02:44:25;12.83;;;7.57;;
13090;SDS011;6611;52.604;13.438;2022-11-18T02:49:30;14.53;;;8.80;;
13090;SDS011;6611;52.604;13.438;2022-11-18T02:54:35;14.83;;;8.13;;
13090;SDS011;6611;52.604;13.438;2022-11-18T02:59:41;12.77;;;7.37;;
13090;SDS011;6611;52.604;13.438;2022-11-18T03:04:43;13.93;;;7.80;;
13090;SDS011;6611;52.604;13.438;2022-11-18T03:09:47;13.87;;;8.37;;
13090;SDS011;6611;52.604;13.438;2022-11-18T03:14:56;14.23;;;8.37;;
13090;SDS011;6611;52.604;13.438;2022-11-18T03:20:06;13.20;;;7.63;;
13090;SDS011;6611;52.604;13.438;2022-11-18T03:25:18;14.37;;;8.93;;
13090;SDS011;6611;52.604;13.438;2022-11-18T03:30:23;16.67;;;8.73;;
13090;SDS011;6611;52.604;13.438;2022-11-18T03:35:27;15.47;;;8.30;;
13090;SDS011;6611;52.604;13.438;2022-11-18T03:40:31;14.47;;;8.20;;
13090;SDS011;6611;52.604;13.438;2022-11-18T03:45:38;15.13;;;8.20;;
13090;SDS011;6611;52.604;13.438;2022-11-18T03:50:44;14.83;;;8.13;;
13090;SDS011;6611;52.604;13.438;2022-11-18T03:55:51;16.80;;;9.30;;
13090;SDS011;6611;52.604;13.438;2022-11-18T04:01:01;20.20;;;9.53;;
13090;SDS011;6611;52.604;13.438;2022-11-18T04:06:06;17.70;;;9.93;;
13090;SDS011;6611;52.604;13.438;2022-11-18T04:11:16;18.40;;;9.97;;
13090;SDS011;6611;52.604;13.438;2022-11-18T04:16:39;20.77;;;9.90;;
13090;SDS011;6611;52.604;13.438;2022-11-18T04:21:41;19.50;;;10.50;;
13090;SDS011;6611;52.604;13.438;2022-11-18T04:26:43;15.57;;;8.60;;
13090;SDS011;6611;52.604;13.438;2022-11-18T04:31:46;16.57;;;9.13;;
13090;SDS011;6611;52.604;13.438;2022-11-18T04:36:48;19.13;;;9.27;;
13090;SDS011;6611;52.604;13.438;2022-11-18T04:41:49;16.67;;;8.87;;
13090;SDS011;6611;52.604;13.438;2022-11-18T04:46:58;17.50;;;8.50;;
13090;SDS011;6611;52.604;13.438;2022-11-18T04:52:02;16.53;;;8.37;;
13090;SDS011;6611;52.604;13.438;2022-11-18T04:57:04;18.23;;;9.20;;
13090;SDS011;6611;52.604;13.438;2022-11-18T05:02:07;22.03;;;9.40;;
13090;SDS011;6611;52.604;13.438;2022-11-18T05:07:11;17.93;;;9.03;;
13090;SDS011;6611;52.604;13.438;2022-11-18T05:12:14;18.50;;;8.83;;
13090;SDS011;6611;52.604;13.438;2022-11-18T05:17:35;17.00;;;8.37;;
13090;SDS011;6611;52.604;13.438;2022-11-18T05:22:36;17.73;;;8.97;;
13090;SDS011;6611;52.604;13.438;2022-11-18T05:27:38;19.27;;;7.77;;
13090;SDS011;6611;52.604;13.438;2022-11-18T05:32:41;14.60;;;7.90;;
13090;SDS011;6611;52.604;13.438;2022-11-18T05:37:43;17.53;;;9.07;;
13090;SDS011;6611;52.604;13.438;2022-11-18T05:42:44;13.77;;;7.77;;
13090;SDS011;6611;52.604;13.438;2022-11-18T05:48:05;14.47;;;7.63;;
13090;SDS011;6611;52.604;13.438;2022-11-18T05:53:07;13.33;;;7.50;;
13090;SDS011;6611;52.604;13.438;2022-11-18T05:58:09;11.87;;;6.10;;
13090;SDS011;6611;52.604;13.438;2022-11-18T06:03:14;10.10;;;6.47;;
13090;SDS011;6611;52.604;13.438;2022-11-18T06:08:20;11.13;;;6.57;;
13090;SDS011;6611;52.604;13.438;2022-11-18T06:13:24;13.07;;;7.97;;
13090;SDS011;6611;52.604;13.438;2022-11-18T06:18:31;12.43;;;6.87;;
13090;SDS011;6611;52.604;13.438;2022-11-18T06:23:34;12.60;;;7.23;;
13090;SDS011;6611;52.604;13.438;2022-11-18T06:28:36;9.77;;;6.73;;
13090;SDS011;6611;52.604;13.438;2022-11-18T06:33:41;12.33;;;6.50;;
13090;SDS011;6611;52.604;13.438;2022-11-18T06:38:43;12.40;;;7.90;;
13090;SDS011;6611;52.604;13.438;2022-11-18T06:43:44;17.63;;;7.70;;
13090;SDS011;6611;52.604;13.438;2022-11-18T06:48:47;11.50;;;6.43;;
13090;SDS011;6611;52.604;13.438;2022-11-18T06:53:49;14.17;;;8.03;;
13090;SDS011;6611;52.604;13.438;2022-11-18T06:58:52;11.70;;;7.73;;
13090;SDS011;6611;52.604;13.438;2022-11-18T07:03:57;10.20;;;6.17;;
13090;SDS011;6611;52.604;13.438;2022-11-18T07:09:00;15.23;;;7.93;;
13090;SDS011;6611;52.604;13.438;2022-11-18T07:14:03;14.17;;;7.10;;
13090;SDS011;6611;52.604;13.438;2022-11-18T07:19:08;12.27;;;7.10;;
13090;SDS011;6611;52.604;13.438;2022-11-18T07:24:11;10.00;;;6.07;;
13090;SDS011;6611;52.604;13.438;2022-11-18T07:29:14;10.57;;;6.23;;
13090;SDS011;6611;52.604;13.438;2022-11-18T07:34:17;7.33;;;5.03;;
13090;SDS011;6611;52.604;13.438;2022-11-18T07:39:19;13.97;;;7.57;;
13090;SDS011;6611;52.604;13.438;2022-11-18T07:44:20;16.17;;;6.70;;
13090;SDS011;6611;52.604;13.438;2022-11-18T07:49:23;11.97;;;6.67;;
13090;SDS011;6611;52.604;13.438;2022-11-18T07:54:25;10.27;;;5.83;;
13090;SDS011;6611;52.604;13.438;2022-11-18T07:59:27;11.90;;;6.47;;
13090;SDS011;6611;52.604;13.438;2022-11-18T08:04:30;13.97;;;7.23;;
13090;SDS011;6611;52.604;13.438;2022-11-18T08:09:31;15.70;;;8.00;;
13090;SDS011;6611;52.604;13.438;2022-11-18T08:14:33;11.50;;;6.63;;
13090;SDS011;6611;52.604;13.438;2022-11-18T08:19:36;10.30;;;6.17;;
13090;SDS011;6611;52.604;13.438;2022-11-18T08:24:38;12.77;;;6.57;;
13090;SDS011;6611;52.604;13.438;2022-11-18T08:29:39;10.03;;;5.97;;
13090;SDS011;6611;52.604;13.438;2022-11-18T08:34:42;10.63;;;6.70;;
13090;SDS011;6611;52.604;13.438;2022-11-18T08:39:44;18.30;;;5.87;;
13090;SDS011;6611;52.604;13.438;2022-11-18T08:44:46;7.87;;;4.57;;
13090;SDS011;6611;52.604;13.438;2022-11-18T08:49:49;12.10;;;6.53;;
13090;SDS011;6611;52.604;13.438;2022-11-18T08:54:50;16.50;;;6.63;;
13090;SDS011;6611;52.604;13.438;2022-11-18T08:59:52;8.60;;;5.57;;
13090;SDS011;6611;52.604;13.438;2022-11-18T09:04:55;11.43;;;6.87;;
13090;SDS011;6611;52.604;13.438;2022-11-18T09:09:57;9.43;;;5.43;;
13090;SDS011;6611;52.604;13.438;2022-11-18T09:14:58;10.23;;;5.67;;
13090;SDS011;6611;52.604;13.438;2022-11-18T09:20:02;8.00;;;5.00;;
13090;SDS011;6611;52.604;13.438;2022-11-18T09:25:04;9.00;;;5.23;;
13090;SDS011;6611;52.604;13.438;2022-11-18T09:30:07;6.43;;;3.80;;
13090;SDS011;6611;52.604;13.438;2022-11-18T09:35:11;8.13;;;4.47;;
13090;SDS011;6611;52.604;13.438;2022-11-18T09:40:14;9.67;;;5.97;;
13090;SDS011;6611;52.604;13.438;2022-11-18T09:45:19;6.27;;;4.47;;
13090;SDS011;6611;52.604;13.438;2022-11-18T09:50:25;6.47;;;3.40;;
13090;SDS011;6611;52.604;13.438;2022-11-18T09:55:27;7.53;;;4.57;;
13090;SDS011;6611;52.604;13.438;2022-11-18T10:00:30;5.53;;;3.90;;
13090;SDS011;6611;52.604;13.438;2022-11-18T10:05:37;7.20;;;4.63;;
13090;SDS011;6611;52.604;13.438;2022-11-18T10:10:49;6.57;;;3.90;;
13090;SDS011;6611;52.604;13.438;2022-11-18T10:15:59;5.93;;;4.00;;
13090;SDS011;6611;52.604;13.438;2022-11-18T10:21:13;6.03;;;4.20;;
13090;SDS011;6611;52.604;13.438;2022-11-18T10:26:31;6.03;;;4.23;;
13090;SDS011;6611;52.604;13.438;2022-11-18T10:31:35;5.87;;;3.50;;
13090;SDS011;6611;52.604;13.438;2022-11-18T10:36:39;4.20;;;3.30;;
13090;SDS011;6611;52.604;13.438;2022-11-18T10:41:42;9.73;;;5.47;;
13090;SDS011;6611;52.604;13.438;2022-11-18T10:46:46;5.50;;;4.10;;
13090;SDS011;6611;52.604;13.438;2022-11-18T10:52:02;10.23;;;6.10;;
13090;SDS011;6611;52.604;13.438;2022-11-18T10:57:12;7.17;;;5.13;;
13090;SDS011;6611;52.604;13.438;2022-11-18T11:02:17;4.67;;;3.20;;
13090;SDS011;6611;52.604;13.438;2022-11-18T11:07:25;6.23;;;4.37;;
13090;SDS011;6611;52.604;13.438;2022-11-18T11:12:31;5.30;;;3.60;;
13090;SDS011;6611;52.604;13.438;2022-11-18T11:17:35;5.60;;;3.83;;
13090;SDS011;6611;52.604;13.438;2022-11-18T11:22:41;4.90;;;3.37;;
13090;SDS011;6611;52.604;13.438;2022-11-18T11:27:45;5.30;;;3.20;;
13090;SDS011;6611;52.604;13.438;2022-11-18T11:33:04;5.20;;;3.37;;
13090;SDS011;6611;52.604;13.438;2022-11-18T11:38:27;5.73;;;3.70;;
13090;SDS011;6611;52.604;13.438;2022-11-18T11:43:39;4.03;;;2.67;;
13090;SDS011;6611;52.604;13.438;2022-11-18T11:48:54;5.40;;;3.10;;
13090;SDS011;6611;52.604;13.438;2022-11-18T11:59:39;5.67;;;3.43;;
13090;SDS011;6611;52.604;13.438;2022-11-18T12:04:48;4.63;;;2.83;;
13090;SDS011;6611;52.604;13.438;2022-11-18T12:10:01;4.80;;;2.97;;
13090;SDS011;6611;52.604;13.438;2022-11-18T12:15:18;4.53;;;2.97;;
13090;SDS011;6611;52.604;13.438;2022-11-18T12:20:36;3.63;;;2.67;;
13090;SDS011;6611;52.604;13.438;2022-11-18T12:36:36;4.77;;;3.20;;
13090;SDS011;6611;52.604;13.438;2022-11-18T12:41:53;4.10;;;2.77;;
13090;SDS011;6611;52.604;13.438;2022-11-18T12:47:13;5.67;;;3.23;;
13090;SDS011;6611;52.604;13.438;2022-11-18T12:57:47;5.77;;;3.17;;
13090;SDS011;6611;52.604;13.438;2022-11-18T13:02:50;7.60;;;3.57;;
13090;SDS011;6611;52.604;13.438;2022-11-18T13:07:53;3.47;;;2.50;;
13090;SDS011;6611;52.604;13.438;2022-11-18T13:13:22;4.27;;;3.10;;
13090;SDS011;6611;52.604;13.438;2022-11-18T13:18:26;4.30;;;3.00;;
13090;SDS011;6611;52.604;13.438;2022-11-18T13:23:28;7.37;;;3.90;;
13090;SDS011;6611;52.604;13.438;2022-11-18T13:29:10;5.53;;;3.00;;
13090;SDS011;6611;52.604;13.438;2022-11-18T13:34:19;5.67;;;4.30;;
13090;SDS011;6611;52.604;13.438;2022-11-18T13:39:23;6.77;;;3.67;;
13090;SDS011;6611;52.604;13.438;2022-11-18T13:44:28;9.33;;;4.57;;
13090;SDS011;6611;52.604;13.438;2022-11-18T13:49:43;14.93;;;7.07;;
13090;SDS011;6611;52.604;13.438;2022-11-18T13:54:51;18.73;;;8.97;;
13090;SDS011;6611;52.604;13.438;2022-11-18T13:59:56;5.40;;;3.73;;
13090;SDS011;6611;52.604;13.438;2022-11-18T14:05:04;8.73;;;4.60;;
13090;SDS011;6611;52.604;13.438;2022-11-18T14:10:07;4.40;;;3.13;;
13090;SDS011;6611;52.604;13.438;2022-11-18T14:15:20;3.60;;;2.70;;
13090;SDS011;6611;52.604;13.438;2022-11-18T14:20:32;4.17;;;2.73;;
13090;SDS011;6611;52.604;13.438;2022-11-18T14:25:34;5.27;;;4.07;;
13090;SDS011;6611;52.604;13.438;2022-11-18T14:30:38;4.43;;;2.83;;
13090;SDS011;6611;52.604;13.438;2022-11-18T14:35:42;5.20;;;3.60;;
13090;SDS011;6611;52.604;13.438;2022-11-18T14:40:45;6.13;;;2.87;;
13090;SDS011;6611;52.604;13.438;2022-11-18T14:45:48;3.80;;;3.00;;
13090;SDS011;6611;52.604;13.438;2022-11-18T14:50:50;3.23;;;2.37;;
13090;SDS011;6611;52.604;13.438;2022-11-18T14:55:52;4.77;;;3.17;;
13090;SDS011;6611;52.604;13.438;2022-11-18T15:00:57;12.23;;;7.87;;
13090;SDS011;6611;52.604;13.438;2022-11-18T15:05:59;6.80;;;4.33;;
13090;SDS011;6611;52.604;13.438;2022-11-18T15:11:01;10.97;;;6.57;;
13090;SDS011;6611;52.604;13.438;2022-11-18T15:16:09;8.40;;;4.67;;
13090;SDS011;6611;52.604;13.438;2022-11-18T15:21:13;4.40;;;2.90;;
13090;SDS011;6611;52.604;13.438;2022-11-18T15:26:17;2.93;;;2.40;;
13090;SDS011;6611;52.604;13.438;2022-11-18T15:31:22;3.67;;;2.53;;
13090;SDS011;6611;52.604;13.438;2022-11-18T15:36:25;3.63;;;2.27;;
13090;SDS011;6611;52.604;13.438;2022-11-18T15:41:28;4.03;;;2.57;;
13090;SDS011;6611;52.604;13.438;2022-11-18T15:46:32;4.20;;;2.47;;
13090;SDS011;6611;52.604;13.438;2022-11-18T15:51:34;4.50;;;2.23;;
13090;SDS011;6611;52.604;13.438;2022-11-18T15:56:35;8.87;;;5.20;;
13090;SDS011;6611;52.604;13.438;2022-11-18T16:01:40;14.10;;;7.60;;
13090;SDS011;6611;52.604;13.438;2022-11-18T16:06:43;12.00;;;6.23;;
13090;SDS011;6611;52.604;13.438;2022-11-18T16:11:45;6.80;;;4.60;;
13090;SDS011;6611;52.604;13.438;2022-11-18T16:17:06;6.83;;;4.67;;
13090;SDS011;6611;52.604;13.438;2022-11-18T16:22:07;12.03;;;5.40;;
13090;SDS011;6611;52.604;13.438;2022-11-18T16:27:09;8.13;;;4.93;;
13090;SDS011;6611;52.604;13.438;2022-11-18T16:32:12;9.57;;;5.47;;
13090;SDS011;6611;52.604;13.438;2022-11-18T16:37:14;9.97;;;5.60;;
13090;SDS011;6611;52.604;13.438;2022-11-18T16:42:16;6.57;;;5.33;;
13090;SDS011;6611;52.604;13.438;2022-11-18T16:47:19;10.63;;;5.73;;
13090;SDS011;6611;52.604;13.438;2022-11-18T16:52:20;10.27;;;6.17;;
13090;SDS011;6611;52.604;13.438;2022-11-18T16:57:22;9.97;;;5.20;;
13090;SDS011;6611;52.604;13.438;2022-11-18T17:02:26;10.10;;;5.63;;
13090;SDS011;6611;52.604;13.438;2022-11-18T17:07:27;7.03;;;4.93;;
13090;SDS011;6611;52.604;13.438;2022-11-18T17:12:29;8.80;;;5.80;;
13090;SDS011;6611;52.604;13.438;2022-11-18T17:17:32;7.70;;;5.00;;
13090;SDS011;6611;52.604;13.438;2022-11-18T17:22:34;7.80;;;4.70;;
13090;SDS011;6611;52.604;13.438;2022-11-18T17:27:35;6.87;;;3.80;;
13090;SDS011;6611;52.604;13.438;2022-11-18T17:32:38;6.97;;;4.77;;
13090;SDS011;6611;52.604;13.438;2022-11-18T17:37:40;7.47;;;4.73;;
13090;SDS011;6611;52.604;13.438;2022-11-18T17:42:42;7.60;;;4.93;;
13090;SDS011;6611;52.604;13.438;2022-11-18T17:47:45;8.93;;;5.83;;
13090;SDS011;6611;52.604;13.438;2022-11-18T17:52:46;8.53;;;6.23;;
13090;SDS011;6611;52.604;13.438;2022-11-18T17:57:48;11.20;;;7.57;;
13090;SDS011;6611;52.604;13.438;2022-11-18T18:02:51;11.50;;;7.90;;
13090;SDS011;6611;52.604;13.438;2022-11-18T18:07:54;11.10;;;7.53;;
13090;SDS011;6611;52.604;13.438;2022-11-18T18:12:56;10.63;;;6.83;;
13090;SDS011;6611;52.604;13.438;2022-11-18T18:18:17;9.00;;;5.77;;
13090;SDS011;6611;52.604;13.438;2022-11-18T18:23:18;9.50;;;6.50;;
13090;SDS011;6611;52.604;13.438;2022-11-18T18:28:20;7.00;;;5.37;;
13090;SDS011;6611;52.604;13.438;2022-11-18T18:33:23;8.23;;;4.73;;
13090;SDS011;6611;52.604;13.438;2022-11-18T18:38:25;12.27;;;7.60;;
13090;SDS011;6611;52.604;13.438;2022-11-18T18:43:27;12.70;;;7.47;;
13090;SDS011;6611;52.604;13.438;2022-11-18T18:48:30;12.33;;;8.07;;
13090;SDS011;6611;52.604;13.438;2022-11-18T18:53:33;10.27;;;6.90;;
13090;SDS011;6611;52.604;13.438;2022-11-18T18:58:34;10.57;;;6.80;;
13090;SDS011;6611;52.604;13.438;2022-11-18T19:03:38;7.77;;;6.10;;
13090;SDS011;6611;52.604;13.438;2022-11-18T19:08:40;7.67;;;6.33;;
13090;SDS011;6611;52.604;13.438;2022-11-18T19:13:41;7.27;;;4.53;;
13090;SDS011;6611;52.604;13.438;2022-11-18T19:18:45;7.60;;;5.83;;
13090;SDS011;6611;52.604;13.438;2022-11-18T19:23:46;7.00;;;6.30;;
13090;SDS011;6611;52.604;13.438;2022-11-18T19:28:48;9.27;;;7.50;;
13090;SDS011;6611;52.604;13.438;2022-11-18T19:33:51;12.23;;;8.90;;
13090;SDS011;6611;52.604;13.438;2022-11-18T19:38:53;17.90;;;10.97;;
13090;SDS011;6611;52.604;13.438;2022-11-18T19:43:55;19.20;;;12.70;;
13090;SDS011;6611;52.604;13.438;2022-11-18T19:48:58;28.43;;;12.73;;
13090;SDS011;6611;52.604;13.438;2022-11-18T19:53:59;17.97;;;9.97;;
13090;SDS011;6611;52.604;13.438;2022-11-18T19:59:01;17.37;;;8.63;;
13090;SDS011;6611;52.604;13.438;2022-11-18T20:04:04;16.27;;;9.67;;
13090;SDS011;6611;52.604;13.438;2022-11-18T20:09:06;12.90;;;8.57;;
13090;SDS011;6611;52.604;13.438;2022-11-18T20:14:09;13.07;;;7.40;;
13090;SDS011;6611;52.604;13.438;2022-11-18T20:19:12;12.80;;;7.40;;
13090;SDS011;6611;52.604;13.438;2022-11-18T20:24:16;16.13;;;8.67;;
13090;SDS011;6611;52.604;13.438;2022-11-18T20:29:18;14.80;;;8.57;;
13090;SDS011;6611;52.604;13.438;2022-11-18T20:34:22;11.47;;;7.03;;
13090;SDS011;6611;52.604;13.438;2022-11-18T20:39:23;10.93;;;7.20;;
13090;SDS011;6611;52.604;13.438;2022-11-18T20:44:25;11.13;;;6.67;;
13090;SDS011;6611;52.604;13.438;2022-11-18T20:49:28;9.97;;;6.23;;
13090;SDS011;6611;52.604;13.438;2022-11-18T20:54:30;5.87;;;5.00;;
13090;SDS011;6611;52.604;13.438;2022-11-18T20:59:32;8.97;;;5.87;;
13090;SDS011;6611;52.604;13.438;2022-11-18T21:04:35;9.27;;;5.50;;
13090;SDS011;6611;52.604;13.438;2022-11-18T21:09:37;8.77;;;6.00;;
13090;SDS011;6611;52.604;13.438;2022-11-18T21:14:39;10.23;;;6.50;;
13090;SDS011;6611;52.604;13.438;2022-11-18T21:19:42;13.27;;;8.63;;
13090;SDS011;6611;52.604;13.438;2022-11-18T21:24:45;13.60;;;9.50;;
13090;SDS011;6611;52.604;13.438;2022-11-18T21:29:46;10.53;;;7.53;;
13090;SDS011;6611;52.604;13.438;2022-11-18T21:34:50;7.70;;;5.00;;
13090;SDS011;6611;52.604;13.438;2022-11-18T21:39:52;8.57;;;5.50;;
13090;SDS011;6611;52.604;13.438;2022-11-18T21:44:53;9.13;;;5.67;;
13090;SDS011;6611;52.604;13.438;2022-11-18T21:49:56;10.03;;;5.43;;
13090;SDS011;6611;52.604;13.438;2022-11-18T21:54:58;7.73;;;5.43;;
13090;SDS011;6611;52.604;13.438;2022-11-18T22:00:00;5.97;;;4.67;;
13090;SDS011;6611;52.604;13.438;2022-11-18T22:05:04;6.93;;;4.50;;
13090;SDS011;6611;52.604;13.438;2022-11-18T22:10:06;4.93;;;3.07;;
13090;SDS011;6611;52.604;13.438;2022-11-18T22:15:09;5.50;;;3.70;;
13090;SDS011;6611;52.604;13.438;2022-11-18T22:20:12;5.40;;;4.30;;
13090;SDS011;6611;52.604;13.438;2022-11-18T22:25:15;5.50;;;4.17;;
13090;SDS011;6611;52.604;13.438;2022-11-18T22:30:17;6.03;;;4.50;;
13090;SDS011;6611;52.604;13.438;2022-11-18T22:35:20;6.30;;;3.97;;
13090;SDS011;6611;52.604;13.438;2022-11-18T22:40:21;6.47;;;4.10;;
13090;SDS011;6611;52.604;13.438;2022-11-18T22:45:23;5.37;;;3.97;;
13090;SDS011;6611;52.604;13.438;2022-11-18T22:50:26;8.37;;;4.07;;
13090;SDS011;6611;52.604;13.438;2022-11-18T22:55:28;5.67;;;4.10;;
13090;SDS011;6611;52.604;13.438;2022-11-18T23:00:29;5.70;;;3.80;;
13090;SDS011;6611;52.604;13.438;2022-11-18T23:05:32;4.17;;;3.77;;
13090;SDS011;6611;52.604;13.438;2022-11-18T23:10:36;5.83;;;3.30;;
13090;SDS011;6611;52.604;13.438;2022-11-18T23:15:37;4.37;;;2.97;;
13090;SDS011;6611;52.604;13.438;2022-11-18T23:20:40;3.33;;;2.93;;
13090;SDS011;6611;52.604;13.438;2022-11-18T23:25:42;3.97;;;2.67;;
13090;SDS011;6611;52.604;13.438;2022-11-18T23:30:44;4.37;;;3.10;;
13090;SDS011;6611;52.604;13.438;2022-11-18T23:35:51;3.03;;;2.57;;
13090;SDS011;6611;52.604;13.438;2022-11-18T23:40:53;3.90;;;2.87;;
13090;SDS011;6611;52.604;13.438;2022-11-18T23:45:56;3.73;;;3.10;;
13090;SDS011;6611;52.604;13.438;2022-11-18T23:51:00;4.80;;;3.60;;
13090;SDS011;6611;52.604;13.438;2022-11-18T23:56:03;5.77;;;3.30;;
